Archival Weather

Norman Y Mineta San Jose Intl

San Jose, California (KSJC)

Report from: Wednesday, February 7, 2024 3:53 AM PST
Current time: Monday, June 24, 2024 2:15 AM PDT

Current weather – Weather history – Daily summaries
Weather forecast

Temperature8.3°C (46.9°F)
Wind chill7.7°C (45.8°F)
Dew point3.9°C (39.0°F)
Winds 3 kts (1.5 m/s, 3.5 mph) South (170°)
Visibility10 mi. (16.1 km)
Clouds Few clouds 4,900 ft. (1,494 m)
Altimeter29.81 in.Hg (1009 mB)
Precip last 24 hours0.03 in. (1 mm)
Relative humidity74 %
Density altitude-551 ft. (-168 m)
Sea-level pressure100.9 kPa (1009 mB, 29.80 in.Hg)
Max temp last 6 hours11.7°C (53.1°F)
Min temp last 6 hours7.2°C (45.0°F)
Remarks Fully automated report
Automated weather observing station with precipitation discriminator
Pressure rising, then falling
Flight conditions Visual Meteorological Conditions
Raw dataKSJC 071153Z AUTO 17003KT 10SM FEW049 08/04 A2981 RMK AO2 SLP093 70003 T00830039 10117 20072 50005
An error has occurred. This application may no longer respond until reloaded. Reload 🗙